Time;durP1;ratioP1;P1;durP2;ratioP2;P2;SDS_P1;SDS_P2;PMS_P1;PMS_P2;Temp;Humidity;BMP_temperature;BMP_pressure;BME280_temperature;BME280_humidity;BME280_pressure;Samples;Min_cycle;Max_cycle;Signal;HPM_P1;HPM_P2
2022/03/10 00:01:11;;;;;;;27.53;12.77;;;;;;;-4.34;100.00;102022.53;5045960;28;20488;-71
2022/03/10 00:03:37;;;;;;;18.53;11.37;;;;;;;-4.43;100.00;102020.38;5045562;28;20463;-71
2022/03/10 00:06:03;;;;;;;18.90;11.30;;;;;;;-4.37;100.00;102028.34;5042594;28;20458;-71
2022/03/10 00:08:32;;;;;;;26.13;13.53;;;;;;;-4.29;100.00;102029.69;5043878;28;20759;-71
2022/03/10 00:10:58;;;;;;;19.63;11.73;;;;;;;-4.28;100.00;102035.63;5045215;28;20837;-70
2022/03/10 00:13:26;;;;;;;20.07;11.80;;;;;;;-4.40;100.00;102039.25;5045723;28;20487;-71
2022/03/10 00:15:53;;;;;;;22.23;12.43;;;;;;;-4.31;100.00;102040.56;5044742;28;21006;-71
2022/03/10 00:18:19;;;;;;;21.23;12.37;;;;;;;-4.33;100.00;102045.56;5044566;28;20449;-70
2022/03/10 00:20:46;;;;;;;25.00;12.87;;;;;;;-4.43;100.00;102051.81;5046337;28;21007;-71
2022/03/10 00:34:35;;;;;;;24.33;12.37;;;;;;;-4.48;100.00;102054.88;5050433;28;20448;-71
2022/03/10 00:37:02;;;;;;;22.00;12.53;;;;;;;-4.51;100.00;102063.19;5067681;28;21025;-71
2022/03/10 00:39:28;;;;;;;23.47;12.57;;;;;;;-4.44;100.00;102062.75;5066948;28;20444;-70
2022/03/10 00:41:55;;;;;;;23.17;12.30;;;;;;;-4.49;100.00;102065.84;5067544;28;20826;-73
2022/03/10 00:44:21;;;;;;;20.60;12.63;;;;;;;-4.43;100.00;102071.31;5067084;28;20460;-71
2022/03/10 00:46:48;;;;;;;21.57;12.77;;;;;;;-4.55;100.00;102073.13;5074862;28;20488;-71
2022/03/10 00:49:14;;;;;;;23.77;12.60;;;;;;;-4.61;100.00;102068.53;5049327;28;20634;-71
2022/03/10 00:51:45;;;;;;;21.73;11.47;;;;;;;-4.59;100.00;102065.31;5059940;28;20516;-70
2022/03/10 00:54:11;;;;;;;18.40;11.83;;;;;;;-4.61;100.00;102073.63;5066665;28;20448;-71
2022/03/10 00:56:38;;;;;;;19.30;12.10;;;;;;;-4.62;100.00;102079.53;5066887;28;20734;-72
2022/03/10 00:59:04;;;;;;;19.63;11.90;;;;;;;-4.52;100.00;102078.38;5067367;28;20461;-71
2022/03/10 01:01:30;;;;;;;25.00;12.57;;;;;;;-4.65;100.00;102074.25;5067385;28;20476;-70
2022/03/10 01:03:57;;;;;;;19.87;12.33;;;;;;;-4.76;100.00;102074.50;5079748;28;20446;-70
2022/03/10 01:06:23;;;;;;;22.40;12.90;;;;;;;-4.76;100.00;102071.06;5047021;28;20459;-71
2022/03/10 01:08:51;;;;;;;20.87;12.37;;;;;;;-4.76;100.00;102081.25;5067591;28;20472;-72
2022/03/10 01:11:17;;;;;;;22.60;13.07;;;;;;;-4.84;100.00;102087.53;5071259;28;20445;-70
2022/03/10 01:13:44;;;;;;;18.30;11.83;;;;;;;-4.85;100.00;102083.25;5074058;28;20463;-71
2022/03/10 01:16:10;;;;;;;18.90;12.13;;;;;;;-4.80;100.00;102079.28;5061673;28;20548;-71
2022/03/10 01:18:37;;;;;;;19.87;12.13;;;;;;;-4.81;100.00;102077.56;5049317;28;20988;-70
2022/03/10 01:21:03;;;;;;;22.20;12.60;;;;;;;-4.83;100.00;102072.38;5067264;28;20799;-70
2022/03/10 01:23:30;;;;;;;22.67;13.27;;;;;;;-4.82;100.00;102084.31;5074243;28;20451;-71
2022/03/10 01:25:58;;;;;;;22.03;13.13;;;;;;;-4.87;100.00;102082.25;5081172;28;20444;-71
2022/03/10 01:28:24;;;;;;;20.33;12.13;;;;;;;-4.95;100.00;102081.81;5067152;28;20484;-70
2022/03/10 01:30:51;;;;;;;25.00;13.43;;;;;;;-4.90;100.00;102085.50;5066909;28;20789;-71
2022/03/10 01:33:18;;;;;;;22.13;12.13;;;;;;;-4.92;100.00;102089.63;5067097;28;20436;-72
2022/03/10 01:35:45;;;;;;;22.20;12.23;;;;;;;-4.74;100.00;102087.31;5066806;28;21127;-71
2022/03/10 01:38:12;;;;;;;25.77;12.87;;;;;;;-4.77;100.00;102087.13;5066683;28;20461;-71
2022/03/10 01:40:39;;;;;;;20.80;12.50;;;;;;;-4.78;100.00;102093.88;5066664;28;20472;-70
2022/03/10 01:43:07;;;;;;;21.83;13.00;;;;;;;-4.91;100.00;102093.06;5066988;28;20463;-73
2022/03/10 01:45:33;;;;;;;18.47;11.37;;;;;;;-4.99;100.00;102101.09;5067333;28;20548;-71
2022/03/10 01:48:00;;;;;;;22.87;12.00;;;;;;;-5.03;100.00;102100.81;5077808;28;20479;-72
2022/03/10 01:50:26;;;;;;;20.47;11.57;;;;;;;-5.05;100.00;102102.38;5066739;28;20444;-74
2022/03/10 01:52:53;;;;;;;24.20;13.20;;;;;;;-5.00;100.00;102101.00;5053973;28;20471;-70
2022/03/10 01:55:20;;;;;;;21.00;12.03;;;;;;;-5.00;100.00;102096.78;5087312;28;20475;-70
2022/03/10 01:57:47;;;;;;;17.80;11.27;;;;;;;-5.03;100.00;102101.72;5083092;28;21030;-71
2022/03/10 02:00:17;;;;;;;21.97;11.73;;;;;;;-5.02;100.00;102106.00;5052269;28;20456;-72
2022/03/10 02:02:44;;;;;;;19.93;12.60;;;;;;;-5.01;100.00;102102.69;5068497;28;20488;-72
2022/03/10 02:05:11;;;;;;;21.70;12.47;;;;;;;-5.05;100.00;102108.34;5070766;28;20452;-74
2022/03/10 02:10:23;;;;;;;21.83;12.00;;;;;;;-5.05;100.00;102102.38;5050678;28;20447;-70
2022/03/10 02:12:51;;;;;;;24.70;12.93;;;;;;;-5.06;100.00;102108.28;5069265;28;20448;-74
2022/03/10 02:18:06;;;;;;;20.27;11.63;;;;;;;-5.04;100.00;102101.63;5070111;28;21029;-71
2022/03/10 02:20:34;;;;;;;21.97;13.27;;;;;;;-5.00;100.00;102114.59;5070250;28;20447;-71
2022/03/10 02:23:02;;;;;;;20.50;12.60;;;;;;;-5.15;100.00;102109.47;5052607;28;20459;-71
2022/03/10 02:25:29;;;;;;;23.90;12.50;;;;;;;-5.17;100.00;102113.59;5069863;28;20440;-70
2022/03/10 02:27:56;;;;;;;23.87;12.50;;;;;;;-5.16;100.00;102107.69;5069610;28;20877;-71
2022/03/10 02:30:25;;;;;;;20.73;12.87;;;;;;;-5.18;100.00;102111.81;5069540;28;20452;-71
2022/03/10 02:32:51;;;;;;;22.97;12.80;;;;;;;-5.27;100.00;102112.94;5069952;28;21227;-70
2022/03/10 02:35:18;;;;;;;20.40;12.73;;;;;;;-5.23;100.00;102113.19;5085709;28;20457;-71
2022/03/10 02:37:45;;;;;;;23.37;13.93;;;;;;;-5.09;100.00;102113.16;5069235;28;20474;-70
2022/03/10 02:40:14;;;;;;;22.10;12.50;;;;;;;-5.06;100.00;102114.25;5075584;28;20896;-71
2022/03/10 02:42:41;;;;;;;24.87;13.07;;;;;;;-5.18;100.00;102116.03;5078385;28;20472;-70
2022/03/10 02:45:09;;;;;;;25.43;12.93;;;;;;;-5.25;100.00;102116.44;5064031;28;20462;-70
2022/03/10 02:47:35;;;;;;;21.00;12.00;;;;;;;-5.28;100.00;102119.66;5071554;28;20459;-70
2022/03/10 02:50:06;;;;;;;25.27;13.63;;;;;;;-5.35;100.00;102133.66;5070274;28;20826;-73
2022/03/10 02:52:33;;;;;;;20.10;11.73;;;;;;;-5.38;100.00;102127.47;5067638;28;20486;-70
2022/03/10 02:54:59;;;;;;;21.00;12.90;;;;;;;-5.37;100.00;102130.13;5069980;28;20810;-70
2022/03/10 02:57:28;;;;;;;28.90;14.20;;;;;;;-5.45;100.00;102128.78;5077176;28;20974;-73
2022/03/10 02:59:55;;;;;;;24.33;14.03;;;;;;;-5.39;100.00;102130.84;5076896;28;20456;-71
2022/03/10 03:02:22;;;;;;;24.47;13.53;;;;;;;-5.39;100.00;102136.78;5069335;28;20468;-70
2022/03/10 03:04:48;;;;;;;26.63;13.53;;;;;;;-5.40;100.00;102135.03;5069353;28;20830;-71
2022/03/10 03:07:15;;;;;;;23.53;13.13;;;;;;;-5.39;100.00;102139.31;5069367;28;20476;-71
2022/03/10 03:09:41;;;;;;;27.97;13.13;;;;;;;-5.34;100.00;102143.03;5050029;28;20811;-70
2022/03/10 03:12:07;;;;;;;25.13;13.43;;;;;;;-5.19;100.00;102135.50;5068956;28;20459;-70
2022/03/10 03:14:35;;;;;;;23.73;13.00;;;;;;;-5.30;100.00;102144.09;5067495;28;20445;-71
2022/03/10 03:17:02;;;;;;;22.20;12.67;;;;;;;-5.36;100.00;102138.66;5069796;28;20900;-71
2022/03/10 03:19:29;;;;;;;26.27;13.20;;;;;;;-5.38;100.00;102133.47;5087777;28;20446;-72
2022/03/10 03:21:55;;;;;;;24.07;12.67;;;;;;;-5.36;100.00;102139.53;5069409;28;20480;-71
2022/03/10 03:24:22;;;;;;;26.57;14.23;;;;;;;-5.39;100.00;102135.91;5069223;28;20522;-72
2022/03/10 03:26:48;;;;;;;30.67;14.50;;;;;;;-5.39;100.00;102146.94;5067316;28;20451;-71
2022/03/10 03:29:15;;;;;;;31.40;14.30;;;;;;;-5.36;100.00;102141.19;5068762;28;21244;-71
2022/03/10 03:31:42;;;;;;;26.33;13.23;;;;;;;-5.35;100.00;102148.03;5068128;28;20522;-72
2022/03/10 03:34:10;;;;;;;23.43;13.73;;;;;;;-5.31;100.00;102142.38;5069325;28;20452;-71
2022/03/10 03:36:38;;;;;;;31.63;15.13;;;;;;;-5.34;100.00;102150.66;5068879;28;20661;-70
2022/03/10 03:39:05;;;;;;;29.60;14.87;;;;;;;-5.31;100.00;102150.00;5067980;28;20448;-71
2022/03/10 03:41:32;;;;;;;25.77;14.77;;;;;;;-5.33;100.00;102157.53;5068752;28;20506;-72
2022/03/10 03:43:59;;;;;;;27.70;15.57;;;;;;;-5.28;100.00;102155.25;5057905;28;20453;-70
2022/03/10 03:46:25;;;;;;;30.90;15.23;;;;;;;-5.24;100.00;102167.41;5076209;28;20440;-70
2022/03/10 03:48:54;;;;;;;37.30;16.43;;;;;;;-5.16;100.00;102168.72;5059355;28;20551;-72
2022/03/10 03:51:21;;;;;;;33.40;15.90;;;;;;;-5.24;100.00;102169.94;5071066;28;20439;-70
2022/03/10 03:53:48;;;;;;;29.97;14.50;;;;;;;-5.27;100.00;102172.28;5068462;28;21129;-71
2022/03/10 03:56:14;;;;;;;29.70;15.50;;;;;;;-5.24;100.00;102175.03;5060446;28;20452;-72
2022/03/10 03:58:41;;;;;;;28.47;14.80;;;;;;;-5.30;100.00;102173.75;5067202;28;20476;-70
2022/03/10 04:01:07;;;;;;;32.03;15.03;;;;;;;-5.21;100.00;102174.31;5068301;28;20456;-70
2022/03/10 04:03:34;;;;;;;29.40;15.63;;;;;;;-5.28;100.00;102175.59;5068343;28;20455;-71
2022/03/10 04:06:02;;;;;;;33.07;16.60;;;;;;;-5.10;100.00;102175.00;5067749;28;20456;-71
2022/03/10 04:08:28;;;;;;;29.90;15.70;;;;;;;-5.27;100.00;102173.97;5068021;28;20970;-71
2022/03/10 04:10:55;;;;;;;29.40;14.67;;;;;;;-5.27;100.00;102179.03;5068157;28;20479;-73
2022/03/10 04:13:22;;;;;;;34.93;16.47;;;;;;;-5.28;100.00;102174.72;5074659;28;20546;-70
2022/03/10 04:15:49;;;;;;;30.27;15.37;;;;;;;-5.28;100.00;102170.50;5067958;28;20811;-71
2022/03/10 04:18:16;;;;;;;31.93;14.87;;;;;;;-5.32;100.00;102171.09;5068154;28;20521;-70
2022/03/10 04:20:43;;;;;;;31.97;15.53;;;;;;;-5.31;100.00;102170.34;5066739;28;20487;-71
2022/03/10 04:23:11;;;;;;;30.83;16.07;;;;;;;-5.33;100.00;102172.78;5067980;28;20508;-72
2022/03/10 04:25:37;;;;;;;29.97;15.43;;;;;;;-5.30;100.00;102177.16;5072453;28;20449;-71
2022/03/10 04:28:04;;;;;;;32.90;16.77;;;;;;;-5.20;100.00;102171.00;5067797;28;20569;-70
2022/03/10 04:30:32;;;;;;;32.17;16.30;;;;;;;-5.28;100.00;102175.59;5067787;28;20444;-73
2022/03/10 04:33:00;;;;;;;31.60;16.27;;;;;;;-5.38;100.00;102179.25;5068031;28;20448;-70
2022/03/10 04:35:26;;;;;;;31.47;16.10;;;;;;;-5.34;100.00;102180.31;5067855;28;20457;-72
2022/03/10 04:37:54;;;;;;;35.00;17.07;;;;;;;-5.34;100.00;102181.19;5062813;28;20457;-71
2022/03/10 04:40:22;;;;;;;33.67;16.07;;;;;;;-5.18;100.00;102171.97;5049146;28;20453;-70
2022/03/10 04:42:50;;;;;;;29.60;15.73;;;;;;;-5.22;100.00;102175.13;5049329;28;20579;-71
2022/03/10 04:45:17;;;;;;;28.97;15.17;;;;;;;-5.31;100.00;102175.44;5067824;28;20447;-70
2022/03/10 04:47:43;;;;;;;27.10;15.43;;;;;;;-5.28;100.00;102175.59;5067757;28;20469;-71
2022/03/10 04:50:12;;;;;;;29.10;15.80;;;;;;;-5.39;100.00;102182.56;5067397;28;20460;-71
2022/03/10 04:52:38;;;;;;;30.60;15.30;;;;;;;-5.43;100.00;102195.00;5067359;28;20448;-72
2022/03/10 04:55:06;;;;;;;34.73;16.47;;;;;;;-5.50;100.00;102196.25;5067591;28;20452;-71
2022/03/10 04:57:34;;;;;;;31.77;14.70;;;;;;;-5.52;100.00;102195.28;5049165;28;20498;-73
2022/03/10 05:00:00;;;;;;;27.20;14.87;;;;;;;-5.38;100.00;102201.22;5067119;28;20452;-72
2022/03/10 05:02:26;;;;;;;29.80;14.87;;;;;;;-5.49;100.00;102200.53;5048730;28;20533;-71
2022/03/10 05:04:53;;;;;;;26.87;14.07;;;;;;;-5.47;100.00;102201.53;5067029;28;20976;-71
2022/03/10 05:07:19;;;;;;;30.57;14.80;;;;;;;-5.52;100.00;102196.16;5072898;28;21112;-70
2022/03/10 05:09:45;;;;;;;32.27;15.73;;;;;;;-5.48;100.00;102212.47;5067112;28;20984;-71
2022/03/10 05:12:12;;;;;;;30.50;14.17;;;;;;;-5.54;100.00;102222.22;5067799;28;20982;-70
2022/03/10 05:14:39;;;;;;;28.50;14.47;;;;;;;-5.59;100.00;102210.91;5067186;28;20453;-70
2022/03/10 05:17:06;;;;;;;30.53;14.80;;;;;;;-5.57;100.00;102220.38;5066814;28;20481;-71
2022/03/10 05:19:32;;;;;;;29.20;14.63;;;;;;;-5.59;100.00;102216.88;5066768;28;20448;-71
2022/03/10 05:21:58;;;;;;;33.60;16.47;;;;;;;-5.56;100.00;102218.72;5063019;28;20548;-70
2022/03/10 05:24:25;;;;;;;27.43;15.23;;;;;;;-5.59;100.00;102227.03;5055014;28;20453;-70
2022/03/10 05:26:51;;;;;;;26.67;13.40;;;;;;;-5.59;100.00;102221.94;5064420;28;20514;-70
2022/03/10 05:29:18;;;;;;;32.20;14.83;;;;;;;-5.62;100.00;102229.38;5066469;28;20476;-72
2022/03/10 05:31:45;;;;;;;35.67;17.00;;;;;;;-5.64;100.00;102224.97;5071611;28;20456;-70
2022/03/10 05:34:12;;;;;;;50.23;19.80;;;;;;;-5.69;100.00;102224.66;5070451;28;20540;-71
2022/03/10 05:36:38;;;;;;;48.30;20.20;;;;;;;-5.57;100.00;102224.59;5071802;28;20445;-70
2022/03/10 05:39:05;;;;;;;40.10;18.07;;;;;;;-5.64;100.00;102235.16;5070164;28;20468;-71
2022/03/10 05:41:33;;;;;;;39.93;18.73;;;;;;;-5.61;100.00;102232.78;5069034;28;20456;-72
2022/03/10 05:44:00;;;;;;;52.03;19.67;;;;;;;-5.64;100.00;102227.53;5070113;28;20523;-72
2022/03/10 05:46:26;;;;;;;45.53;18.60;;;;;;;-5.68;100.00;102241.69;5066587;28;20517;-72
2022/03/10 05:48:54;;;;;;;45.57;19.07;;;;;;;-5.67;100.00;102238.34;5070315;28;20491;-72
2022/03/10 05:51:21;;;;;;;44.83;18.80;;;;;;;-5.66;100.00;102239.22;5069775;28;20456;-71
2022/03/10 05:53:49;;;;;;;38.97;19.00;;;;;;;-5.57;100.00;102238.19;5065004;28;20479;-72
2022/03/10 05:56:15;;;;;;;38.50;19.23;;;;;;;-5.57;100.00;102244.94;5074302;28;20532;-72
2022/03/10 05:58:42;;;;;;;41.27;18.97;;;;;;;-5.60;100.00;102239.63;5068960;28;20479;-70
2022/03/10 06:01:08;;;;;;;37.33;18.50;;;;;;;-5.49;100.00;102240.34;5069524;28;20464;-74
2022/03/10 06:03:35;;;;;;;46.73;20.40;;;;;;;-5.49;100.00;102240.34;5069537;28;20521;-72
2022/03/10 06:06:02;;;;;;;42.60;19.67;;;;;;;-5.57;100.00;102248.34;5069394;28;20455;-71
2022/03/10 06:08:29;;;;;;;45.00;20.47;;;;;;;-5.55;100.00;102244.25;5069496;28;20500;-73
2022/03/10 06:10:56;;;;;;;43.47;20.40;;;;;;;-5.49;100.00;102243.75;5069233;28;20488;-71
2022/03/10 06:13:22;;;;;;;39.63;18.53;;;;;;;-5.48;100.00;102249.75;5073541;28;20452;-71
2022/03/10 06:15:48;;;;;;;43.27;19.40;;;;;;;-5.44;100.00;102250.00;5069833;28;20444;-71
2022/03/10 06:18:15;;;;;;;39.80;19.57;;;;;;;-5.32;100.00;102255.03;5070607;28;21012;-73
2022/03/10 06:20:42;;;;;;;43.23;19.40;;;;;;;-5.21;100.00;102251.50;5062361;28;20452;-72
2022/03/10 06:23:09;;;;;;;40.33;20.50;;;;;;;-5.16;100.00;102250.13;5069863;28;20472;-70
2022/03/10 06:25:36;;;;;;;46.90;21.50;;;;;;;-4.96;100.00;102247.97;5070297;28;20456;-72
2022/03/10 06:28:04;;;;;;;48.80;23.57;;;;;;;-4.91;100.00;102255.91;5074104;28;20502;-72
2022/03/10 06:30:30;;;;;;;49.03;21.40;;;;;;;-4.69;100.00;102261.53;5078353;28;20495;-71
2022/03/10 06:32:57;;;;;;;51.40;23.77;;;;;;;-4.46;100.00;102257.00;5071979;28;20445;-70
2022/03/10 06:35:24;;;;;;;52.47;23.93;;;;;;;-4.33;100.00;102263.69;5076015;28;20483;-71
2022/03/10 06:37:50;;;;;;;52.40;24.70;;;;;;;-4.14;100.00;102265.69;5052250;28;21010;-71
2022/03/10 06:40:18;;;;;;;56.50;26.63;;;;;;;-3.96;100.00;102268.47;5076453;28;20568;-71
2022/03/10 06:42:45;;;;;;;60.37;27.93;;;;;;;-3.83;100.00;102279.47;5074838;28;20480;-73
2022/03/10 06:45:11;;;;;;;69.23;29.33;;;;;;;-3.61;100.00;102278.16;5069641;28;20840;-70
2022/03/10 06:47:37;;;;;;;64.73;29.23;;;;;;;-3.43;100.00;102281.81;5069620;28;20479;-72
2022/03/10 06:50:06;;;;;;;67.47;27.77;;;;;;;-3.29;100.00;102287.69;5069315;28;20911;-73
2022/03/10 06:52:33;;;;;;;67.17;31.20;;;;;;;-3.04;100.00;102289.06;5070763;28;20468;-72
2022/03/10 06:54:59;;;;;;;67.63;30.10;;;;;;;-2.91;100.00;102296.59;5065472;28;20454;-71
2022/03/10 06:57:27;;;;;;;64.40;30.43;;;;;;;-2.75;100.00;102297.47;5061181;28;20935;-73
2022/03/10 06:59:54;;;;;;;67.57;31.07;;;;;;;-2.62;100.00;102301.56;5074656;28;20451;-71
2022/03/10 07:02:20;;;;;;;66.70;30.30;;;;;;;-2.47;100.00;102299.84;5067900;28;20482;-71
2022/03/10 07:04:46;;;;;;;66.63;30.80;;;;;;;-2.28;100.00;102301.72;5068698;28;20462;-70
2022/03/10 07:07:13;;;;;;;69.93;31.67;;;;;;;-2.20;100.00;102295.34;5067932;28;20478;-73
2022/03/10 07:09:41;;;;;;;67.33;31.63;;;;;;;-2.07;100.00;102301.09;5076155;28;20454;-71
2022/03/10 07:12:09;;;;;;;68.97;31.07;;;;;;;-1.93;100.00;102303.56;5073211;28;20455;-71
2022/03/10 07:14:36;;;;;;;75.17;32.10;;;;;;;-1.80;100.00;102302.50;5075300;28;20524;-72
2022/03/10 07:17:03;;;;;;;71.47;31.70;;;;;;;-1.70;100.00;102303.84;5067330;28;20472;-71
2022/03/10 07:19:29;;;;;;;71.00;30.47;;;;;;;-1.56;100.00;102310.53;5050066;28;20969;-71
2022/03/10 07:21:56;;;;;;;56.40;29.67;;;;;;;-1.44;100.00;102305.16;5060206;28;20244;-72
2022/03/10 07:24:23;;;;;;;64.43;30.37;;;;;;;-1.37;100.00;102307.22;5072930;28;20482;-72
2022/03/10 07:26:49;;;;;;;69.83;30.07;;;;;;;-1.25;100.00;102316.31;5066676;28;21118;-71
2022/03/10 07:29:15;;;;;;;64.50;29.97;;;;;;;-1.16;100.00;102317.66;5065209;28;20687;-76
2022/03/10 07:31:43;;;;;;;64.30;30.13;;;;;;;-1.04;100.00;102321.59;5066127;28;20586;-73
2022/03/10 07:34:09;;;;;;;60.80;28.83;;;;;;;-0.90;100.00;102319.69;5049786;28;21153;-72
2022/03/10 07:36:36;;;;;;;58.03;27.07;;;;;;;-0.85;100.00;102323.38;5067603;28;20203;-73
2022/03/10 07:39:02;;;;;;;47.33;26.33;;;;;;;-0.76;100.00;102321.22;5067664;28;20651;-73
2022/03/10 07:41:28;;;;;;;55.67;27.10;;;;;;;-0.65;100.00;102321.72;5067458;28;20198;-71
2022/03/10 07:43:56;;;;;;;51.40;26.90;;;;;;;-0.52;100.00;102325.75;5067814;28;20631;-72
2022/03/10 07:46:23;;;;;;;52.57;25.47;;;;;;;-0.40;100.00;102329.75;5068267;28;20252;-72
2022/03/10 07:48:51;;;;;;;60.07;26.77;;;;;;;-0.35;100.00;102335.13;5069388;28;20246;-73
2022/03/10 07:51:18;;;;;;;57.60;28.17;;;;;;;-0.18;100.00;102333.28;5067727;28;20201;-72
2022/03/10 07:53:45;;;;;;;48.93;25.50;;;;;;;-0.09;100.00;102328.59;5074014;28;20198;-74
2022/03/10 07:56:11;;;;;;;50.67;24.73;;;;;;;0.02;100.00;102326.50;5070837;28;20194;-71
2022/03/10 07:58:38;;;;;;;51.13;28.03;;;;;;;0.06;100.00;102325.81;5069252;28;20221;-71
2022/03/10 08:01:04;;;;;;;45.07;25.10;;;;;;;0.23;100.00;102333.38;5070156;28;20194;-73
2022/03/10 08:03:30;;;;;;;43.77;24.93;;;;;;;0.35;100.00;102326.22;5072116;28;20217;-71
2022/03/10 08:05:58;;;;;;;50.33;24.60;;;;;;;0.38;100.00;102332.34;5049155;28;20656;-74
2022/03/10 08:08:24;;;;;;;44.70;24.70;;;;;;;0.59;100.00;102328.94;5069204;28;20217;-72
2022/03/10 08:10:51;;;;;;;44.90;25.17;;;;;;;0.71;100.00;102334.59;5073152;28;20194;-73
2022/03/10 08:13:18;;;;;;;49.33;26.93;;;;;;;0.88;100.00;102334.41;5073967;28;20191;-75
2022/03/10 08:15:45;;;;;;;46.53;25.30;;;;;;;1.06;100.00;102336.88;5065734;28;20329;-73
2022/03/10 08:18:12;;;;;;;50.97;25.33;;;;;;;1.12;100.00;102331.97;5050754;28;20226;-74
2022/03/10 08:20:39;;;;;;;44.10;24.20;;;;;;;1.17;100.00;102338.16;5067362;28;20203;-71
2022/03/10 08:23:07;;;;;;;48.60;24.20;;;;;;;1.29;100.00;102333.50;5071265;28;20217;-72
2022/03/10 08:25:34;;;;;;;43.80;23.80;;;;;;;1.41;100.00;102332.25;5064693;28;20305;-75
2022/03/10 08:28:01;;;;;;;47.10;24.33;;;;;;;1.50;100.00;102335.16;5064899;28;20221;-71
2022/03/10 08:30:28;;;;;;;49.00;25.87;;;;;;;1.63;100.00;102341.66;5046915;28;20791;-73
2022/03/10 08:32:54;;;;;;;46.63;24.23;;;;;;;1.68;100.00;102347.84;5066849;28;20723;-71
2022/03/10 08:35:20;;;;;;;45.30;24.47;;;;;;;1.81;100.00;102346.59;5068216;28;20219;-74
2022/03/10 08:37:47;;;;;;;47.87;23.60;;;;;;;1.82;100.00;102346.66;5063490;28;20221;-73
2022/03/10 08:40:15;;;;;;;48.40;26.33;;;;;;;2.07;100.00;102352.72;5064821;28;20195;-71
2022/03/10 08:42:43;;;;;;;45.63;24.33;;;;;;;2.26;100.00;102354.25;5065201;28;20280;-74
2022/03/10 08:45:10;;;;;;;43.27;23.03;;;;;;;2.27;100.00;102359.47;5065899;28;20201;-74
2022/03/10 08:47:36;;;;;;;51.00;26.80;;;;;;;2.38;100.00;102359.84;5065661;28;20719;-72
2022/03/10 08:50:04;;;;;;;44.10;24.73;;;;;;;2.52;100.00;102365.47;5068823;28;20189;-71
2022/03/10 08:52:31;;;;;;;46.90;23.70;;;;;;;2.66;100.00;102365.94;5066132;28;20560;-74
2022/03/10 08:54:58;;;;;;;51.40;23.67;;;;;;;2.68;100.00;102368.59;5065995;28;20559;-72
2022/03/10 08:57:26;;;;;;;47.30;24.53;;;;;;;2.79;100.00;102369.81;5065784;28;20620;-71
2022/03/10 08:59:52;;;;;;;44.40;22.60;;;;;;;2.80;100.00;102366.44;5066623;28;20198;-73
2022/03/10 09:02:19;;;;;;;48.07;24.83;;;;;;;2.97;99.27;102373.03;5062460;28;20191;-74
2022/03/10 09:04:45;;;;;;;44.67;23.47;;;;;;;3.06;99.31;102371.53;5065647;28;20722;-72
2022/03/10 09:07:12;;;;;;;48.43;25.17;;;;;;;3.20;98.09;102371.19;5065347;28;20214;-73
2022/03/10 09:09:38;;;;;;;42.30;23.63;;;;;;;3.28;97.26;102375.72;5065460;28;20198;-74
2022/03/10 09:12:06;;;;;;;43.33;23.37;;;;;;;3.34;97.22;102375.88;5066036;28;20210;-72
2022/03/10 09:14:34;;;;;;;46.03;26.27;;;;;;;3.42;97.64;102372.72;5066797;28;20443;-73
2022/03/10 09:17:01;;;;;;;46.43;24.17;;;;;;;3.51;96.52;102366.97;5066938;28;20215;-73
2022/03/10 09:19:27;;;;;;;43.60;23.37;;;;;;;3.62;96.74;102359.56;5071748;28;20205;-74
2022/03/10 09:21:54;;;;;;;43.67;23.07;;;;;;;3.79;95.35;102371.25;5066921;28;20252;-73
2022/03/10 09:24:20;;;;;;;43.07;23.60;;;;;;;3.80;95.19;102369.59;5065334;28;20262;-72
2022/03/10 09:26:46;;;;;;;42.83;23.93;;;;;;;3.84;94.92;102367.97;5065302;28;20201;-71
2022/03/10 09:29:13;;;;;;;39.60;22.43;;;;;;;3.95;95.05;102372.59;5067977;28;20198;-71
2022/03/10 09:31:40;;;;;;;36.97;21.97;;;;;;;3.99;95.15;102365.81;5067024;28;20198;-71
2022/03/10 09:34:08;;;;;;;41.13;21.67;;;;;;;4.07;94.55;102366.91;5070258;28;20636;-72
2022/03/10 09:36:34;;;;;;;40.40;22.03;;;;;;;4.17;94.26;102360.31;5066240;28;20285;-75
2022/03/10 09:39:01;;;;;;;40.77;21.47;;;;;;;4.26;93.27;102370.88;5068375;28;20218;-72
2022/03/10 09:41:28;;;;;;;36.77;21.10;;;;;;;4.34;92.91;102360.75;5066555;28;20203;-72
2022/03/10 09:43:56;;;;;;;38.33;22.10;;;;;;;4.44;91.89;102365.34;5067932;28;20202;-72
2022/03/10 09:46:23;;;;;;;36.93;20.07;;;;;;;4.59;90.51;102366.59;5065043;28;20199;-72
2022/03/10 09:48:53;;;;;;;35.57;21.03;;;;;;;4.72;90.44;102369.53;5060579;28;20283;-72
2022/03/10 09:51:22;;;;;;;34.00;20.07;;;;;;;4.81;88.12;102374.06;5066530;28;20194;-72
2022/03/10 09:53:48;;;;;;;36.87;20.40;;;;;;;4.85;87.75;102372.44;5058959;28;20245;-72
2022/03/10 09:56:15;;;;;;;31.40;19.53;;;;;;;4.92;87.51;102374.34;5062302;28;20223;-72
2022/03/10 09:58:41;;;;;;;34.50;19.23;;;;;;;5.00;85.81;102384.88;5054060;28;20210;-72
2022/03/10 10:01:08;;;;;;;33.10;18.13;;;;;;;4.94;84.91;102385.56;5062471;28;20208;-72
2022/03/10 10:03:34;;;;;;;33.60;17.80;;;;;;;4.92;85.47;102382.97;5064923;28;20604;-72
2022/03/10 10:06:04;;;;;;;27.73;15.67;;;;;;;5.10;83.96;102392.00;5041632;28;20203;-72
2022/03/10 10:08:31;;;;;;;28.13;16.83;;;;;;;5.18;84.65;102392.22;5062446;28;20569;-72
2022/03/10 10:10:59;;;;;;;26.80;15.30;;;;;;;5.26;83.22;102393.28;5064316;28;20205;-72
2022/03/10 10:13:28;;;;;;;23.97;14.43;;;;;;;5.32;80.35;102394.28;5064016;28;20230;-72
2022/03/10 10:15:57;;;;;;;22.93;12.83;;;;;;;5.48;79.40;102405.84;5067192;28;20202;-72
2022/03/10 10:18:24;;;;;;;22.00;12.77;;;;;;;5.59;79.65;102400.94;5064269;28;20213;-72
2022/03/10 10:20:53;;;;;;;20.23;11.53;;;;;;;5.71;76.60;102402.06;5066934;28;20976;-72
2022/03/10 10:23:23;;;;;;;17.23;11.60;;;;;;;5.72;75.51;102406.38;5067078;28;20218;-72
2022/03/10 10:25:55;;;;;;;14.87;9.73;;;;;;;5.85;73.89;102408.41;5051630;28;20239;-73
2022/03/10 10:28:27;;;;;;;15.60;9.27;;;;;;;5.95;73.04;102417.25;5023733;28;21611;-72
2022/03/10 10:31:01;;;;;;;12.20;8.13;;;;;;;6.06;69.78;102432.19;5038441;28;20201;-72
2022/03/10 10:33:29;;;;;;;11.43;7.37;;;;;;;6.22;70.43;102415.28;5037663;28;20613;-72
2022/03/10 10:36:12;;;;;;;9.77;6.97;;;;;;;6.28;69.45;102416.22;5039208;28;20219;-72
2022/03/10 10:38:41;;;;;;;14.00;8.40;;;;;;;6.30;68.58;102424.91;5038207;28;20584;-72
2022/03/10 10:41:22;;;;;;;12.23;8.03;;;;;;;6.36;68.80;102414.69;5040272;28;20443;-72
2022/03/10 10:43:51;;;;;;;13.40;8.63;;;;;;;6.40;66.92;102416.47;5039756;28;22003;-73
2022/03/10 10:46:25;;;;;;;11.90;7.80;;;;;;;6.32;63.90;102420.66;5040741;28;20199;-73
2022/03/10 10:48:52;;;;;;;11.43;8.20;;;;;;;6.07;63.32;102414.97;5040378;28;20214;-72
2022/03/10 10:51:33;;;;;;;14.37;9.37;;;;;;;6.15;64.25;102409.94;5039459;28;20205;-72
2022/03/10 10:54:04;;;;;;;14.63;9.67;;;;;;;6.17;64.74;102409.13;5028902;28;20920;-72
2022/03/10 10:56:33;;;;;;;11.93;8.50;;;;;;;6.09;63.09;102415.88;5030898;28;20268;-72
2022/03/10 10:59:01;;;;;;;13.40;8.90;;;;;;;6.21;62.13;102420.44;5038160;28;20230;-73
2022/03/10 11:01:33;;;;;;;11.90;8.20;;;;;;;6.24;63.00;102418.78;5038796;28;20734;-72
2022/03/10 11:04:03;;;;;;;12.23;9.27;;;;;;;6.23;62.33;102413.56;5037803;28;20700;-72
2022/03/10 11:06:29;;;;;;;14.67;9.93;;;;;;;6.18;61.57;102416.06;5037847;28;20301;-72
2022/03/10 11:08:56;;;;;;;13.57;8.93;;;;;;;6.14;61.81;102411.66;5037951;28;20223;-72
2022/03/10 11:11:24;;;;;;;15.40;10.03;;;;;;;6.20;62.26;102414.38;5018514;28;20206;-72
2022/03/10 11:13:51;;;;;;;15.47;10.17;;;;;;;6.24;61.59;102412.72;5036830;28;20195;-72
2022/03/10 11:16:18;;;;;;;14.80;10.30;;;;;;;6.33;62.39;102414.63;5037981;28;20198;-72
2022/03/10 11:18:49;;;;;;;15.13;9.67;;;;;;;6.30;61.48;102417.13;5036272;28;20226;-72
2022/03/10 11:21:34;;;;;;;15.57;9.90;;;;;;;6.28;61.46;102409.38;5037238;28;20205;-71
2022/03/10 11:24:11;;;;;;;16.70;10.43;;;;;;;6.41;61.70;102413.94;5039394;28;20225;-71